Time;durP1;ratioP1;P1;durP2;ratioP2;P2;SDS_P1;SDS_P2;PMS_P1;PMS_P2;Temp;Humidity;BMP_temperature;BMP_pressure;BME280_temperature;BME280_humidity;BME280_pressure;Samples;Min_cycle;Max_cycle;Signal;HPM_P1;HPM_P2
2023/03/05 00:01:38;;;;;;;;;;;5.40;99.90;;;;;;4989305;28;19924;-67
2023/03/05 00:04:04;;;;;;;;;;;5.40;99.90;;;;;;4968867;28;19972;-67
2023/03/05 00:06:31;;;;;;;;;;;5.40;99.90;;;;;;4974831;28;19914;-68
2023/03/05 00:08:57;;;;;;;;;;;5.40;99.90;;;;;;4989981;28;19968;-67
2023/03/05 00:11:24;;;;;;;;;;;5.40;99.90;;;;;;4976007;28;19954;-68
2023/03/05 00:13:53;;;;;;;;;;;5.40;99.90;;;;;;4965253;28;19918;-66
2023/03/05 00:16:19;;;;;;;;;;;5.40;99.90;;;;;;4991032;28;19918;-67
2023/03/05 00:18:45;;;;;;;;;;;5.40;99.90;;;;;;4991084;28;19932;-67
2023/03/05 00:21:18;;;;;;;;;;;5.40;99.90;;;;;;4991507;28;19914;-66
2023/03/05 00:23:44;;;;;;;;;;;5.40;99.90;;;;;;4991555;28;19944;-65
2023/03/05 00:26:09;;;;;;;;;;;5.40;99.90;;;;;;4973430;28;20362;-67
2023/03/05 00:28:34;;;;;;;;;;;5.40;99.90;;;;;;4991132;28;19945;-67
2023/03/05 00:31:00;;;;;;;;;;;5.30;99.90;;;;;;4994761;28;19926;-67
2023/03/05 00:33:26;;;;;;;;;;;5.30;99.90;;;;;;4992762;28;19909;-69
2023/03/05 00:35:51;;;;;;;;;;;5.30;99.90;;;;;;4989816;28;19921;-67
2023/03/05 00:38:17;;;;;;;;;;;5.30;99.90;;;;;;4990811;28;19980;-65
2023/03/05 00:40:42;;;;;;;;;;;5.30;99.90;;;;;;4995342;28;19918;-67
2023/03/05 00:43:08;;;;;;;;;;;5.30;99.90;;;;;;4991598;28;19953;-67
2023/03/05 00:45:34;;;;;;;;;;;5.20;99.90;;;;;;4991859;28;19914;-67
2023/03/05 00:48:00;;;;;;;;;;;5.20;99.90;;;;;;4990543;28;19932;-67
2023/03/05 00:50:26;;;;;;;;;;;5.20;99.90;;;;;;4991806;28;20392;-68
2023/03/05 00:52:51;;;;;;;;;;;5.30;99.90;;;;;;4991172;28;19914;-67
2023/03/05 00:55:17;;;;;;;;;;;5.30;99.90;;;;;;4991952;28;20111;-68
2023/03/05 00:57:42;;;;;;;;;;;5.20;99.90;;;;;;4990353;28;19913;-67
2023/03/05 01:00:08;;;;;;;;;;;5.30;99.90;;;;;;4992059;28;19914;-67
2023/03/05 01:02:34;;;;;;;;;;;5.30;99.90;;;;;;4991548;28;20808;-68
2023/03/05 01:04:59;;;;;;;;;;;5.30;99.90;;;;;;4973769;28;19914;-67
2023/03/05 01:07:25;;;;;;;;;;;5.30;99.90;;;;;;4992626;28;20525;-67
2023/03/05 01:09:50;;;;;;;;;;;5.30;99.90;;;;;;4991348;28;19940;-67
2023/03/05 01:12:16;;;;;;;;;;;5.30;99.90;;;;;;4990836;28;19921;-67
2023/03/05 01:14:41;;;;;;;;;;;5.30;99.90;;;;;;4992290;28;19910;-67
2023/03/05 01:17:07;;;;;;;;;;;5.30;99.90;;;;;;4991940;28;19926;-67
2023/03/05 01:19:33;;;;;;;;;;;5.30;99.90;;;;;;4991513;28;19945;-67
2023/03/05 01:21:58;;;;;;;;;;;5.30;99.90;;;;;;4990790;28;20421;-67
2023/03/05 01:24:24;;;;;;;;;;;5.30;99.90;;;;;;4991850;28;19972;-67
2023/03/05 01:26:49;;;;;;;;;;;5.30;99.90;;;;;;4993674;28;19914;-67
2023/03/05 01:29:15;;;;;;;;;;;5.20;99.90;;;;;;4991808;28;19956;-67
2023/03/05 01:31:40;;;;;;;;;;;5.30;99.90;;;;;;4991995;28;19914;-66
2023/03/05 01:34:06;;;;;;;;;;;5.20;99.90;;;;;;4989738;28;20012;-67
2023/03/05 01:36:31;;;;;;;;;;;5.20;99.90;;;;;;4990807;28;20260;-67
2023/03/05 01:38:57;;;;;;;;;;;5.20;99.90;;;;;;4992104;28;20012;-67
2023/03/05 01:41:22;;;;;;;;;;;5.20;99.90;;;;;;4992319;28;19914;-67
2023/03/05 01:43:48;;;;;;;;;;;5.20;99.90;;;;;;4991691;28;20016;-67
2023/03/05 01:46:23;;;;;;;;;;;5.20;99.90;;;;;;4971138;28;19914;-67
2023/03/05 01:49:01;;;;;;;;;;;5.20;99.90;;;;;;4994610;28;19937;-67
2023/03/05 01:51:28;;;;;;;;;;;5.20;99.90;;;;;;4989969;28;19910;-67
2023/03/05 01:53:54;;;;;;;;;;;5.20;99.90;;;;;;4990064;28;19925;-67
2023/03/05 01:56:20;;;;;;;;;;;5.20;99.90;;;;;;4990055;28;19909;-67
2023/03/05 01:58:45;;;;;;;;;;;5.20;99.90;;;;;;4990346;28;19917;-66
2023/03/05 02:01:11;;;;;;;;;;;5.10;99.90;;;;;;4996873;28;20314;-67
2023/03/05 02:03:37;;;;;;;;;;;5.10;99.90;;;;;;4991482;28;19920;-68
2023/03/05 02:06:02;;;;;;;;;;;5.20;99.90;;;;;;4995145;28;19921;-67
2023/03/05 02:08:27;;;;;;;;;;;5.10;99.90;;;;;;4994938;28;20288;-67
2023/03/05 02:10:55;;;;;;;;;;;5.10;99.90;;;;;;4989287;28;19936;-67
2023/03/05 02:13:22;;;;;;;;;;;5.10;99.90;;;;;;4973274;28;20402;-67
2023/03/05 02:15:48;;;;;;;;;;;5.10;99.90;;;;;;4991223;28;20382;-67
2023/03/05 02:18:14;;;;;;;;;;;5.10;99.90;;;;;;4975980;28;20379;-67
2023/03/05 02:20:52;;;;;;;;;;;5.10;99.90;;;;;;4990041;28;19920;-67
2023/03/05 02:23:19;;;;;;;;;;;5.20;99.90;;;;;;4992790;28;19917;-67
2023/03/05 02:25:45;;;;;;;;;;;5.10;99.90;;;;;;4970919;28;19926;-67
2023/03/05 02:28:13;;;;;;;;;;;5.10;99.90;;;;;;4987655;28;20290;-67
2023/03/05 02:30:39;;;;;;;;;;;5.10;99.90;;;;;;4996420;28;19926;-67
2023/03/05 02:33:05;;;;;;;;;;;5.10;99.90;;;;;;4994072;28;20409;-67
2023/03/05 02:35:30;;;;;;;;;;;5.10;99.90;;;;;;4992355;28;19914;-68
2023/03/05 02:37:56;;;;;;;;;;;5.10;99.90;;;;;;4988711;28;19918;-67
2023/03/05 02:40:21;;;;;;;;;;;5.10;99.90;;;;;;4990381;28;20189;-67
2023/03/05 02:42:47;;;;;;;;;;;5.00;99.90;;;;;;4990004;28;19949;-66
2023/03/05 02:45:13;;;;;;;;;;;5.00;99.90;;;;;;4986082;28;19922;-68
2023/03/05 02:47:39;;;;;;;;;;;5.00;99.90;;;;;;4987578;28;19921;-67
2023/03/05 02:50:05;;;;;;;;;;;5.00;99.90;;;;;;4968501;28;20048;-67
2023/03/05 02:52:31;;;;;;;;;;;5.00;99.90;;;;;;4988852;28;19921;-67
2023/03/05 02:54:56;;;;;;;;;;;5.00;99.90;;;;;;4988315;28;19913;-68
2023/03/05 02:57:22;;;;;;;;;;;4.90;99.90;;;;;;4989656;28;19917;-67
2023/03/05 02:59:47;;;;;;;;;;;4.90;99.90;;;;;;4983405;28;19929;-67
2023/03/05 03:02:13;;;;;;;;;;;4.90;99.90;;;;;;4988675;28;19969;-67
2023/03/05 03:04:38;;;;;;;;;;;4.80;99.90;;;;;;4989732;28;20001;-67
2023/03/05 03:07:04;;;;;;;;;;;4.80;99.90;;;;;;4995440;28;20295;-67
2023/03/05 03:09:29;;;;;;;;;;;4.80;99.90;;;;;;5000966;28;19914;-67
2023/03/05 03:11:55;;;;;;;;;;;4.80;99.90;;;;;;4991624;28;19914;-66
2023/03/05 03:14:20;;;;;;;;;;;4.80;99.90;;;;;;4994126;28;19913;-69
2023/03/05 03:16:46;;;;;;;;;;;4.90;99.90;;;;;;4990862;28;20290;-68
2023/03/05 03:19:11;;;;;;;;;;;4.90;99.90;;;;;;4994314;28;19914;-67
2023/03/05 03:21:37;;;;;;;;;;;4.90;99.90;;;;;;4991348;28;19918;-67
2023/03/05 03:24:03;;;;;;;;;;;4.90;99.90;;;;;;4988388;28;19918;-68
2023/03/05 03:26:29;;;;;;;;;;;4.90;99.90;;;;;;4994189;28;19976;-67
2023/03/05 03:28:54;;;;;;;;;;;4.90;99.90;;;;;;4993755;28;20399;-68
2023/03/05 03:31:20;;;;;;;;;;;4.80;99.90;;;;;;4992114;28;19925;-68
2023/03/05 03:33:45;;;;;;;;;;;4.80;99.90;;;;;;4989294;28;20486;-67
2023/03/05 03:36:11;;;;;;;;;;;4.90;99.90;;;;;;4993897;28;20009;-68
2023/03/05 03:38:36;;;;;;;;;;;4.90;99.90;;;;;;4993495;28;20498;-67
2023/03/05 03:41:04;;;;;;;;;;;4.90;99.90;;;;;;4991531;28;19928;-67
2023/03/05 03:43:29;;;;;;;;;;;4.90;99.90;;;;;;4990440;28;19913;-68
2023/03/05 03:45:55;;;;;;;;;;;4.90;99.90;;;;;;4993790;28;19922;-67
2023/03/05 03:48:20;;;;;;;;;;;4.90;99.90;;;;;;4988916;28;19921;-67
2023/03/05 03:50:46;;;;;;;;;;;4.90;99.90;;;;;;4995478;28;20379;-67
2023/03/05 03:53:13;;;;;;;;;;;4.90;99.90;;;;;;4990395;28;20409;-67
2023/03/05 03:55:39;;;;;;;;;;;4.90;99.90;;;;;;4992119;28;19923;-67
2023/03/05 03:58:04;;;;;;;;;;;4.90;99.90;;;;;;4991730;28;20008;-68
2023/03/05 04:00:30;;;;;;;;;;;4.80;99.90;;;;;;4993378;28;20000;-68
2023/03/05 04:02:55;;;;;;;;;;;4.80;99.90;;;;;;4989941;28;20459;-68
2023/03/05 04:05:21;;;;;;;;;;;4.90;99.90;;;;;;4993530;28;20287;-67
2023/03/05 04:07:46;;;;;;;;;;;4.80;99.90;;;;;;4994016;28;19941;-68
2023/03/05 04:10:12;;;;;;;;;;;4.90;99.90;;;;;;4993893;28;19924;-67
2023/03/05 04:12:37;;;;;;;;;;;4.90;99.90;;;;;;4987841;28;19961;-67
2023/03/05 04:15:04;;;;;;;;;;;4.80;99.90;;;;;;4991696;28;20017;-67
2023/03/05 04:17:31;;;;;;;;;;;4.90;99.90;;;;;;4992025;28;20383;-68
2023/03/05 04:19:57;;;;;;;;;;;4.90;99.90;;;;;;4988368;28;19921;-67
2023/03/05 04:22:22;;;;;;;;;;;4.80;99.90;;;;;;4994795;28;19964;-67
2023/03/05 04:24:48;;;;;;;;;;;4.80;99.90;;;;;;4990396;28;19961;-67
2023/03/05 04:27:13;;;;;;;;;;;4.80;99.90;;;;;;4991897;28;20620;-68
2023/03/05 04:29:38;;;;;;;;;;;4.80;99.90;;;;;;4988765;28;19918;-68
2023/03/05 04:32:04;;;;;;;;;;;4.80;99.90;;;;;;4991551;28;20373;-66
2023/03/05 04:34:29;;;;;;;;;;;4.80;99.90;;;;;;4991149;28;19914;-68
2023/03/05 04:36:55;;;;;;;;;;;4.80;99.90;;;;;;4991435;28;20012;-67
2023/03/05 04:39:20;;;;;;;;;;;4.80;99.90;;;;;;4991896;28;19960;-67
2023/03/05 04:41:46;;;;;;;;;;;4.80;99.90;;;;;;4995230;28;19996;-67
2023/03/05 04:44:12;;;;;;;;;;;4.80;99.90;;;;;;4988305;28;20383;-68
2023/03/05 04:46:37;;;;;;;;;;;4.80;99.90;;;;;;4988606;28;19918;-68
2023/03/05 04:49:03;;;;;;;;;;;4.70;99.90;;;;;;4990211;28;19917;-68
2023/03/05 04:51:28;;;;;;;;;;;4.70;99.90;;;;;;4993066;28;19999;-69
2023/03/05 04:53:54;;;;;;;;;;;4.70;99.90;;;;;;4993082;28;19913;-68
2023/03/05 04:56:19;;;;;;;;;;;4.70;99.90;;;;;;4991501;28;19957;-68
2023/03/05 04:58:45;;;;;;;;;;;4.70;99.90;;;;;;4993165;28;19921;-68
2023/03/05 05:01:10;;;;;;;;;;;4.70;99.90;;;;;;4989215;28;19921;-67
2023/03/05 05:03:36;;;;;;;;;;;4.70;99.90;;;;;;4988214;28;19961;-68
2023/03/05 05:06:01;;;;;;;;;;;4.80;99.90;;;;;;4990606;28;19918;-68
2023/03/05 05:08:27;;;;;;;;;;;4.80;99.90;;;;;;4990844;28;19920;-68
2023/03/05 05:10:56;;;;;;;;;;;4.80;99.90;;;;;;4992884;28;19983;-68
2023/03/05 05:13:22;;;;;;;;;;;4.70;99.90;;;;;;4994022;28;19914;-68
2023/03/05 05:15:47;;;;;;;;;;;4.70;99.90;;;;;;4989030;28;19918;-67
2023/03/05 05:18:13;;;;;;;;;;;4.70;99.90;;;;;;4990348;28;19918;-68
2023/03/05 05:20:38;;;;;;;;;;;4.70;99.90;;;;;;4992092;28;19917;-68
2023/03/05 05:23:04;;;;;;;;;;;4.70;99.90;;;;;;4990553;28;19914;-67
2023/03/05 05:25:29;;;;;;;;;;;4.70;99.90;;;;;;4988590;28;19973;-67
2023/03/05 05:27:55;;;;;;;;;;;4.70;99.90;;;;;;4989127;28;19914;-67
2023/03/05 05:30:20;;;;;;;;;;;4.70;99.90;;;;;;4991549;28;19921;-68
2023/03/05 05:32:46;;;;;;;;;;;4.70;99.90;;;;;;4988705;28;19937;-67
2023/03/05 05:35:11;;;;;;;;;;;4.80;99.90;;;;;;4971970;28;20425;-67
2023/03/05 05:37:36;;;;;;;;;;;4.80;99.90;;;;;;4990458;28;19918;-66
2023/03/05 05:40:04;;;;;;;;;;;4.70;99.90;;;;;;4990820;28;19944;-68
2023/03/05 05:42:29;;;;;;;;;;;4.70;99.90;;;;;;4990625;28;19914;-69
2023/03/05 05:44:55;;;;;;;;;;;4.70;99.90;;;;;;4988539;28;19937;-67
2023/03/05 05:47:20;;;;;;;;;;;4.70;99.90;;;;;;4990000;28;19913;-65
2023/03/05 05:49:46;;;;;;;;;;;4.70;99.90;;;;;;4987192;28;19920;-67
2023/03/05 05:52:12;;;;;;;;;;;4.70;99.90;;;;;;4989506;28;20283;-67
2023/03/05 05:54:37;;;;;;;;;;;4.70;99.90;;;;;;4989803;28;20427;-67
2023/03/05 05:57:03;;;;;;;;;;;4.60;99.90;;;;;;4989370;28;19922;-67
2023/03/05 05:59:28;;;;;;;;;;;4.50;99.90;;;;;;4990088;28;20001;-67
2023/03/05 06:01:54;;;;;;;;;;;4.40;99.90;;;;;;4993476;28;19917;-67
2023/03/05 06:04:19;;;;;;;;;;;4.50;99.90;;;;;;4986821;28;19914;-67
2023/03/05 06:06:44;;;;;;;;;;;4.50;99.90;;;;;;4993623;28;19922;-67
2023/03/05 06:09:10;;;;;;;;;;;4.50;99.90;;;;;;4989753;28;19914;-67
2023/03/05 06:11:36;;;;;;;;;;;4.50;99.90;;;;;;4994704;28;19922;-67
2023/03/05 06:14:02;;;;;;;;;;;4.50;99.90;;;;;;4987294;28;19925;-67
2023/03/05 06:16:28;;;;;;;;;;;4.60;99.90;;;;;;4986083;28;19918;-67
2023/03/05 06:18:53;;;;;;;;;;;4.60;99.90;;;;;;4988873;28;19968;-67
2023/03/05 06:21:20;;;;;;;;;;;4.60;99.90;;;;;;4987443;28;19920;-66
2023/03/05 06:23:46;;;;;;;;;;;4.60;99.90;;;;;;4989754;28;19922;-67
2023/03/05 06:26:12;;;;;;;;;;;4.60;99.90;;;;;;4989507;28;20392;-67
2023/03/05 06:28:38;;;;;;;;;;;4.60;99.90;;;;;;4972260;28;19918;-67
2023/03/05 06:31:05;;;;;;;;;;;4.60;99.90;;;;;;4989004;28;20004;-67
2023/03/05 06:33:31;;;;;;;;;;;4.50;99.90;;;;;;4990686;28;19941;-67
2023/03/05 06:35:56;;;;;;;;;;;4.40;99.90;;;;;;4990100;28;19961;-68
2023/03/05 06:38:22;;;;;;;;;;;4.30;99.90;;;;;;4989023;28;20497;-67
2023/03/05 06:40:47;;;;;;;;;;;4.30;99.90;;;;;;4987019;28;19914;-66
2023/03/05 06:43:13;;;;;;;;;;;4.30;99.90;;;;;;4988766;28;19925;-67
2023/03/05 06:45:38;;;;;;;;;;;4.30;99.90;;;;;;4989310;28;19918;-67
2023/03/05 06:48:04;;;;;;;;;;;4.30;99.90;;;;;;4989577;28;20804;-67
2023/03/05 06:50:29;;;;;;;;;;;4.20;99.90;;;;;;4991768;28;19914;-67
2023/03/05 06:52:55;;;;;;;;;;;4.30;99.90;;;;;;4988132;28;19914;-66
2023/03/05 06:55:20;;;;;;;;;;;4.30;99.90;;;;;;4989629;28;20395;-67
2023/03/05 06:57:46;;;;;;;;;;;4.30;99.90;;;;;;4991298;28;20299;-66
2023/03/05 07:00:11;;;;;;;;;;;4.40;99.90;;;;;;4990347;28;20414;-67
2023/03/05 07:02:37;;;;;;;;;;;4.40;99.90;;;;;;4987988;28;19914;-67
2023/03/05 07:05:03;;;;;;;;;;;4.30;99.90;;;;;;4987661;28;20016;-66
2023/03/05 07:07:29;;;;;;;;;;;4.40;99.90;;;;;;4988889;28;19925;-67
2023/03/05 07:09:54;;;;;;;;;;;;;;;;;;4987296;28;20385;-66
2023/03/05 07:12:20;;;;;;;;;;;4.40;99.90;;;;;;4985878;28;19918;-66
2023/03/05 07:14:45;;;;;;;;;;;4.60;99.90;;;;;;4988778;28;19960;-66
2023/03/05 07:17:14;;;;;;;;;;;4.50;99.90;;;;;;4989110;28;19964;-68
2023/03/05 07:19:39;;;;;;;;;;;4.60;99.90;;;;;;4984889;28;20283;-66
2023/03/05 07:22:05;;;;;;;;;;;4.70;99.90;;;;;;4987645;28;19922;-67
2023/03/05 07:24:31;;;;;;;;;;;4.70;99.90;;;;;;4992723;28;20024;-67
2023/03/05 07:26:56;;;;;;;;;;;4.60;99.90;;;;;;4988754;28;19960;-66
2023/03/05 07:29:22;;;;;;;;;;;4.60;99.90;;;;;;4988076;28;19914;-67
2023/03/05 07:31:48;;;;;;;;;;;4.60;99.90;;;;;;4988324;28;19918;-66
2023/03/05 07:34:14;;;;;;;;;;;4.70;99.90;;;;;;4989220;28;20287;-67
2023/03/05 07:36:41;;;;;;;;;;;4.70;99.90;;;;;;4989376;28;20005;-68
2023/03/05 07:39:06;;;;;;;;;;;4.80;99.90;;;;;;4973318;28;20310;-68
2023/03/05 07:41:32;;;;;;;;;;;4.90;99.90;;;;;;4989621;28;20000;-69
2023/03/05 07:43:58;;;;;;;;;;;4.90;99.90;;;;;;4988900;28;20304;-69
2023/03/05 07:46:27;;;;;;;;;;;4.90;99.90;;;;;;4991444;28;19917;-68
2023/03/05 07:48:53;;;;;;;;;;;4.80;99.90;;;;;;4989528;28;20031;-67
2023/03/05 07:51:19;;;;;;;;;;;4.80;99.90;;;;;;4985390;28;19980;-66
2023/03/05 07:53:45;;;;;;;;;;;4.90;99.90;;;;;;4975581;28;20478;-67
2023/03/05 07:56:11;;;;;;;;;;;4.90;99.90;;;;;;4991679;28;19918;-68
2023/03/05 07:58:36;;;;;;;;;;;5.00;99.90;;;;;;4992046;28;20057;-69
2023/03/05 08:01:02;;;;;;;;;;;5.00;99.90;;;;;;4993227;28;19981;-69
2023/03/05 08:03:27;;;;;;;;;;;5.00;99.90;;;;;;4991039;28;19917;-67
2023/03/05 08:05:53;;;;;;;;;;;5.10;99.90;;;;;;4989698;28;19930;-67
2023/03/05 08:08:18;;;;;;;;;;;5.00;99.90;;;;;;4991481;28;20356;-67
2023/03/05 08:10:44;;;;;;;;;;;5.00;99.90;;;;;;4992202;28;19917;-65
2023/03/05 08:13:09;;;;;;;;;;;4.90;99.90;;;;;;4990457;28;20307;-67
2023/03/05 08:15:38;;;;;;;;;;;5.00;99.90;;;;;;4992587;28;19936;-68
2023/03/05 08:18:04;;;;;;;;;;;5.00;99.90;;;;;;4993921;28;19917;-69
2023/03/05 08:20:30;;;;;;;;;;;5.10;99.90;;;;;;4992511;28;19918;-67
2023/03/05 08:22:55;;;;;;;;;;;5.10;99.90;;;;;;4994038;28;19914;-68
2023/03/05 08:25:21;;;;;;;;;;;5.10;99.90;;;;;;4992466;28;19928;-67
2023/03/05 08:27:47;;;;;;;;;;;5.10;99.90;;;;;;4992279;28;19914;-68
2023/03/05 08:30:14;;;;;;;;;;;5.10;99.90;;;;;;4992043;28;19914;-68
2023/03/05 08:32:40;;;;;;;;;;;5.00;99.90;;;;;;4989587;28;19925;-67
2023/03/05 08:35:05;;;;;;;;;;;5.10;99.90;;;;;;4992611;28;19917;-67
2023/03/05 08:37:31;;;;;;;;;;;5.10;99.90;;;;;;4990977;28;19921;-68
2023/03/05 08:39:57;;;;;;;;;;;5.10;99.90;;;;;;4992683;28;19914;-67
2023/03/05 08:42:23;;;;;;;;;;;5.10;99.90;;;;;;4991131;28;19922;-67
2023/03/05 08:44:48;;;;;;;;;;;5.20;99.90;;;;;;4991704;28;19925;-68
2023/03/05 08:47:14;;;;;;;;;;;5.30;99.90;;;;;;4992344;28;19913;-68
2023/03/05 08:49:39;;;;;;;;;;;5.30;99.90;;;;;;4989509;28;19913;-68
2023/03/05 08:52:05;;;;;;;;;;;5.30;99.90;;;;;;4985791;28;19914;-68
2023/03/05 08:54:32;;;;;;;;;;;5.40;99.90;;;;;;4993455;28;19926;-67
2023/03/05 08:56:57;;;;;;;;;;;5.40;99.90;;;;;;4993539;28;20402;-69
2023/03/05 08:59:23;;;;;;;;;;;5.40;99.90;;;;;;4991398;28;19954;-69
2023/03/05 09:01:48;;;;;;;;;;;5.40;99.90;;;;;;4989978;28;20302;-69
2023/03/05 09:04:14;;;;;;;;;;;5.30;99.90;;;;;;5010617;28;19922;-68
2023/03/05 09:06:40;;;;;;;;;;;5.20;99.90;;;;;;4973796;28;19921;-68
2023/03/05 09:09:06;;;;;;;;;;;5.30;99.90;;;;;;4988344;28;19914;-68
2023/03/05 09:11:34;;;;;;;;;;;5.30;99.90;;;;;;4990737;28;19921;-69
2023/03/05 09:14:03;;;;;;;;;;;5.40;99.90;;;;;;4992569;28;19922;-69
2023/03/05 09:16:29;;;;;;;;;;;5.40;99.90;;;;;;4988960;28;20023;-69
2023/03/05 09:18:54;;;;;;;;;;;5.40;99.90;;;;;;4989632;28;20435;-68
2023/03/05 09:21:19;;;;;;;;;;;5.40;99.90;;;;;;4990602;28;19921;-69
2023/03/05 09:23:48;;;;;;;;;;;5.40;99.90;;;;;;4991909;28;19924;-69
2023/03/05 09:26:15;;;;;;;;;;;5.40;99.90;;;;;;4992010;28;19922;-69
2023/03/05 09:28:40;;;;;;;;;;;5.40;99.90;;;;;;4991588;28;19949;-69
2023/03/05 09:31:07;;;;;;;;;;;5.50;99.90;;;;;;4990634;28;20003;-69
2023/03/05 09:33:35;;;;;;;;;;;5.60;99.90;;;;;;4989782;28;20298;-69
2023/03/05 09:36:01;;;;;;;;;;;5.80;99.90;;;;;;4990408;28;20012;-68
2023/03/05 09:38:27;;;;;;;;;;;5.90;99.90;;;;;;4987933;28;20331;-68
2023/03/05 09:41:06;;;;;;;;;;;5.70;99.90;;;;;;4991100;28;19924;-68
2023/03/05 09:43:44;;;;;;;;;;;6.00;99.90;;;;;;4991084;28;19918;-69
2023/03/05 09:46:27;;;;;;;;;;;6.00;99.90;;;;;;4985144;28;19999;-69
2023/03/05 09:48:58;;;;;;;;;;;6.20;99.90;;;;;;4985563;28;19929;-69
2023/03/05 09:51:26;;;;;;;;;;;6.30;99.90;;;;;;4990624;28;19976;-69
2023/03/05 09:54:03;;;;;;;;;;;6.10;99.90;;;;;;4989736;28;19914;-68
2023/03/05 09:56:38;;;;;;;;;;;6.20;99.90;;;;;;4990028;28;19913;-69
2023/03/05 09:59:22;;;;;;;;;;;6.30;99.90;;;;;;4988416;28;20446;-68
2023/03/05 10:01:48;;;;;;;;;;;6.20;99.90;;;;;;4987175;28;20402;-68
2023/03/05 10:04:36;;;;;;;;;;;6.30;99.90;;;;;;4989948;28;19914;-69
2023/03/05 10:07:17;;;;;;;;;;;6.20;99.90;;;;;;4984887;28;19925;-68
2023/03/05 10:09:48;;;;;;;;;;;6.10;99.90;;;;;;4985591;28;19993;-68
2023/03/05 10:12:13;;;;;;;;;;;6.20;99.90;;;;;;4970379;28;20402;-69
2023/03/05 10:14:40;;;;;;;;;;;6.20;99.90;;;;;;4988250;28;20030;-65
2023/03/05 10:17:14;;;;;;;;;;;6.10;99.90;;;;;;4985440;28;19972;-65
2023/03/05 10:19:40;;;;;;;;;;;5.90;99.90;;;;;;4988227;28;20004;-65
2023/03/05 10:22:19;;;;;;;;;;;5.90;99.90;;;;;;4986724;28;20400;-65
2023/03/05 10:24:53;;;;;;;;;;;5.90;99.90;;;;;;4983290;28;19991;-65
2023/03/05 10:27:19;;;;;;;;;;;5.90;99.90;;;;;;4983438;28;20380;-66
2023/03/05 10:29:54;;;;;;;;;;;5.90;99.90;;;;;;4986069;28;20000;-64
2023/03/05 10:32:41;;;;;;;;;;;5.90;99.90;;;;;;4981558;28;19918;-66
2023/03/05 10:35:09;;;;;;;;;;;5.80;99.90;;;;;;4989436;28;20007;-66
2023/03/05 10:37:45;;;;;;;;;;;5.70;99.90;;;;;;4991243;28;19972;-66
2023/03/05 10:40:16;;;;;;;;;;;5.50;99.90;;;;;;4987465;28;19921;-67
2023/03/05 10:42:56;;;;;;;;;;;5.50;99.90;;;;;;4988484;28;19921;-67
2023/03/05 10:45:24;;;;;;;;;;;5.50;99.90;;;;;;4991844;28;19920;-65
2023/03/05 10:47:50;;;;;;;;;;;5.50;99.90;;;;;;4983782;28;20001;-63
2023/03/05 10:50:23;;;;;;;;;;;5.50;99.90;;;;;;4987386;28;20012;-67
2023/03/05 10:53:01;;;;;;;;;;;5.50;99.90;;;;;;4988743;28;19929;-66
2023/03/05 10:55:27;;;;;;;;;;;5.50;99.90;;;;;;4992643;28;20311;-66
2023/03/05 10:57:52;;;;;;;;;;;5.40;99.90;;;;;;4994890;28;19925;-66
2023/03/05 11:00:22;;;;;;;;;;;5.50;99.90;;;;;;4988516;28;20042;-68
2023/03/05 11:02:58;;;;;;;;;;;5.50;99.90;;;;;;4980670;28;20054;-65
2023/03/05 11:05:42;;;;;;;;;;;5.50;99.90;;;;;;4985745;28;20372;-66
2023/03/05 11:08:27;;;;;;;;;;;5.50;99.90;;;;;;4987263;28;19925;-65
2023/03/05 11:11:08;;;;;;;;;;;5.50;99.90;;;;;;4987119;28;19918;-65
2023/03/05 11:13:36;;;;;;;;;;;5.50;99.90;;;;;;4990469;28;20560;-65
2023/03/05 11:16:03;;;;;;;;;;;5.50;99.90;;;;;;4980165;28;19960;-66
2023/03/05 11:18:33;;;;;;;;;;;5.40;99.90;;;;;;4980604;28;19956;-64
2023/03/05 11:21:17;;;;;;;;;;;5.50;99.90;;;;;;4986128;28;19922;-66
2023/03/05 11:23:42;;;;;;;;;;;5.50;99.90;;;;;;4984247;28;19914;-65
2023/03/05 11:26:11;;;;;;;;;;;5.60;99.90;;;;;;4992200;28;19972;-67
2023/03/05 11:28:53;;;;;;;;;;;5.70;99.90;;;;;;4991997;28;20340;-67
2023/03/05 11:31:21;;;;;;;;;;;5.50;99.90;;;;;;4990277;28;19918;-66
2023/03/05 11:33:57;;;;;;;;;;;5.50;99.90;;;;;;4989455;28;19969;-64
2023/03/05 11:36:23;;;;;;;;;;;5.60;99.90;;;;;;4989422;28;19921;-68
2023/03/05 11:38:59;;;;;;;;;;;5.60;99.90;;;;;;4989068;28;19925;-65
2023/03/05 11:41:30;;;;;;;;;;;5.60;99.90;;;;;;4991141;28;19924;-66
2023/03/05 11:43:55;;;;;;;;;;;5.60;99.90;;;;;;4969497;28;19914;-64
2023/03/05 11:46:21;;;;;;;;;;;5.50;99.90;;;;;;4988448;28;20264;-67
2023/03/05 11:48:47;;;;;;;;;;;5.50;99.90;;;;;;4989138;28;20376;-63
2023/03/05 11:51:36;;;;;;;;;;;5.50;99.90;;;;;;4984493;28;20299;-66
2023/03/05 11:54:06;;;;;;;;;;;5.50;99.90;;;;;;4988884;28;19972;-66
2023/03/05 11:56:35;;;;;;;;;;;5.60;99.90;;;;;;4988712;28;19920;-67
2023/03/05 11:59:10;;;;;;;;;;;5.50;99.90;;;;;;4990159;28;19926;-65
2023/03/05 12:01:39;;;;;;;;;;;5.40;99.90;;;;;;4988479;28;19917;-66
2023/03/05 12:04:07;;;;;;;;;;;5.30;99.90;;;;;;4985086;28;20056;-66
2023/03/05 12:06:49;;;;;;;;;;;5.20;99.90;;;;;;4989793;28;19949;-66
2023/03/05 12:09:21;;;;;;;;;;;5.20;99.90;;;;;;4990623;28;19955;-67
2023/03/05 12:11:48;;;;;;;;;;;5.20;99.90;;;;;;4991102;28;20331;-66
2023/03/05 12:14:26;;;;;;;;;;;5.10;99.90;;;;;;4989561;28;19940;-66
2023/03/05 12:17:10;;;;;;;;;;;5.10;99.90;;;;;;4969463;28;19913;-66
2023/03/05 12:19:45;;;;;;;;;;;5.10;99.90;;;;;;4987710;28;19961;-66
2023/03/05 12:22:19;;;;;;;;;;;5.10;99.90;;;;;;4985708;28;20555;-66
2023/03/05 12:24:45;;;;;;;;;;;5.20;99.90;;;;;;4984636;28;19980;-64
2023/03/05 12:27:13;;;;;;;;;;;5.30;99.90;;;;;;4991483;28;19914;-66
2023/03/05 12:29:43;;;;;;;;;;;5.40;99.90;;;;;;4987438;28;19917;-66
2023/03/05 12:32:21;;;;;;;;;;;5.50;99.90;;;;;;4991521;28;19914;-66
2023/03/05 12:34:48;;;;;;;;;;;5.60;99.90;;;;;;4986038;28;19918;-64
2023/03/05 12:37:19;;;;;;;;;;;5.70;99.90;;;;;;4988675;28;19924;-65
2023/03/05 12:39:48;;;;;;;;;;;5.70;99.90;;;;;;4988215;28;19972;-64
2023/03/05 12:42:29;;;;;;;;;;;5.70;99.90;;;;;;4988252;28;20368;-65
2023/03/05 12:45:18;;;;;;;;;;;5.80;99.90;;;;;;4987262;28;19918;-65
2023/03/05 12:47:55;;;;;;;;;;;5.80;99.90;;;;;;4987989;28;19918;-64
2023/03/05 12:50:26;;;;;;;;;;;5.80;99.90;;;;;;4986988;28;20105;-65
2023/03/05 12:52:52;;;;;;;;;;;5.90;99.90;;;;;;4983578;28;19918;-65
2023/03/05 12:55:28;;;;;;;;;;;6.00;99.90;;;;;;4983580;28;19917;-65
2023/03/05 12:58:11;;;;;;;;;;;5.90;99.90;;;;;;4981750;28;20002;-67
2023/03/05 13:00:37;;;;;;;;;;;5.90;99.90;;;;;;4981730;28;19953;-65
2023/03/05 13:03:06;;;;;;;;;;;6.00;99.90;;;;;;4982569;28;19980;-67
2023/03/05 13:05:34;;;;;;;;;;;6.00;99.90;;;;;;4988000;28;19960;-66
2023/03/05 13:08:19;;;;;;;;;;;6.10;99.90;;;;;;4988268;28;20008;-67
2023/03/05 13:10:50;;;;;;;;;;;6.10;99.90;;;;;;4992154;28;19971;-67
2023/03/05 13:13:15;;;;;;;;;;;6.10;99.90;;;;;;4988090;28;19960;-67
2023/03/05 13:15:44;;;;;;;;;;;6.10;99.90;;;;;;4991786;28;20327;-68
2023/03/05 13:18:29;;;;;;;;;;;6.00;99.90;;;;;;4986506;28;19926;-66
2023/03/05 13:21:05;;;;;;;;;;;6.00;99.90;;;;;;4965858;28;19913;-65
2023/03/05 13:23:31;;;;;;;;;;;6.00;99.90;;;;;;4991061;28;19914;-65
2023/03/05 13:25:59;;;;;;;;;;;6.00;99.90;;;;;;4972243;28;19917;-66
2023/03/05 13:28:24;;;;;;;;;;;6.00;99.90;;;;;;4989052;28;20287;-67
2023/03/05 13:30:51;;;;;;;;;;;6.00;99.90;;;;;;4989804;28;19960;-67
2023/03/05 13:33:18;;;;;;;;;;;6.10;99.90;;;;;;4997362;28;20398;-66
2023/03/05 13:35:45;;;;;;;;;;;6.10;99.90;;;;;;4989715;28;19923;-68
2023/03/05 13:38:46;;;;;;;;;;;6.10;99.90;;;;;;4987859;28;19965;-68
2023/03/05 13:41:14;;;;;;;;;;;6.10;99.90;;;;;;4943905;28;19977;-66
2023/03/05 13:43:58;;;;;;;;;;;6.10;99.90;;;;;;4982444;28;19965;-66
2023/03/05 13:46:25;;;;;;;;;;;6.20;99.90;;;;;;4985835;28;19928;-66
2023/03/05 13:48:51;;;;;;;;;;;6.10;99.90;;;;;;4981985;28;20035;-66
2023/03/05 13:51:16;;;;;;;;;;;6.20;99.90;;;;;;4987405;28;19949;-66
2023/03/05 13:53:42;;;;;;;;;;;6.10;99.90;;;;;;4987434;28;19913;-65
2023/03/05 13:56:12;;;;;;;;;;;6.00;99.90;;;;;;4985879;28;19928;-66
2023/03/05 13:58:48;;;;;;;;;;;6.00;99.90;;;;;;4989159;28;19926;-65
2023/03/05 14:01:25;;;;;;;;;;;6.00;99.90;;;;;;4989468;28;20300;-69
2023/03/05 14:03:52;;;;;;;;;;;6.00;99.90;;;;;;4988864;28;20311;-65
2023/03/05 14:06:20;;;;;;;;;;;6.00;99.90;;;;;;4988858;28;20446;-66
2023/03/05 14:08:53;;;;;;;;;;;6.00;99.90;;;;;;4985559;28;20016;-66
2023/03/05 14:11:18;;;;;;;;;;;5.90;99.90;;;;;;4987224;28;19922;-66
2023/03/05 14:13:45;;;;;;;;;;;5.90;99.90;;;;;;4984490;28;20300;-67
2023/03/05 14:16:22;;;;;;;;;;;5.90;99.90;;;;;;4990372;28;19921;-67
2023/03/05 14:18:52;;;;;;;;;;;5.80;99.90;;;;;;4986901;28;19921;-70
2023/03/05 14:21:17;;;;;;;;;;;5.70;99.90;;;;;;4986726;28;19995;-67
2023/03/05 14:23:47;;;;;;;;;;;5.60;99.90;;;;;;4988691;28;20556;-66
2023/03/05 14:26:32;;;;;;;;;;;5.50;99.90;;;;;;4988387;28;19924;-67
2023/03/05 14:29:00;;;;;;;;;;;5.40;99.90;;;;;;4987955;28;19957;-67
2023/03/05 14:31:26;;;;;;;;;;;5.40;99.90;;;;;;4985643;28;20351;-67
2023/03/05 14:33:52;;;;;;;;;;;5.40;99.90;;;;;;4988003;28;19918;-65
2023/03/05 14:36:22;;;;;;;;;;;5.40;99.90;;;;;;4978921;28;20014;-65